Time;durP1;ratioP1;P1;durP2;ratioP2;P2;SDS_P1;SDS_P2;PMS_P1;PMS_P2;Temp;Humidity;BMP_temperature;BMP_pressure;BME280_temperature;BME280_humidity;BME280_pressure;Samples;Min_cycle;Max_cycle;Signal;HPM_P1;HPM_P2
2021/11/23 00:05:31;;;;;;;13.85;5.32;;;3.20;99.90;;;;;;12205406;28;20064;-38
2021/11/23 00:11:34;;;;;;;10.18;5.55;;;3.10;99.90;;;;;;12218038;29;20055;-40
2021/11/23 00:17:37;;;;;;;11.63;5.22;;;3.10;99.90;;;;;;12216017;29;20129;-38
2021/11/23 00:23:39;;;;;;;11.40;5.82;;;3.10;99.90;;;;;;12221270;29;20552;-37
2021/11/23 00:29:41;;;;;;;14.73;6.25;;;3.00;99.90;;;;;;12215686;29;20064;-38
2021/11/23 00:35:45;;;;;;;12.73;6.68;;;2.90;99.90;;;;;;12216543;29;20186;-37
2021/11/23 00:41:48;;;;;;;11.73;6.50;;;2.90;99.90;;;;;;12216192;29;20071;-37
2021/11/23 00:47:50;;;;;;;12.45;6.70;;;3.00;99.90;;;;;;12214817;29;20075;-38
2021/11/23 00:53:52;;;;;;;14.32;7.68;;;2.90;99.90;;;;;;12210201;29;20766;-38
2021/11/23 00:59:53;;;;;;;10.30;7.05;;;2.80;99.90;;;;;;12218224;29;20150;-38
2021/11/23 01:05:58;;;;;;;16.35;7.95;;;2.80;99.90;;;;;;12215903;29;20143;-38
2021/11/23 01:12:00;;;;;;;16.27;8.57;;;2.70;99.90;;;;;;12214387;29;20513;-37
2021/11/23 01:18:03;;;;;;;13.60;7.38;;;2.80;99.90;;;;;;12216508;29;20124;-38
2021/11/23 01:24:05;;;;;;;11.48;7.55;;;3.00;99.90;;;;;;12210019;29;20056;-38
2021/11/23 01:30:09;;;;;;;17.23;7.35;;;3.00;99.90;;;;;;12209332;29;20114;-38
2021/11/23 01:36:11;;;;;;;12.98;7.10;;;3.10;99.90;;;;;;12215782;29;20080;-39
2021/11/23 01:42:14;;;;;;;16.65;7.53;;;3.20;99.90;;;;;;12210840;29;20086;-39
2021/11/23 01:48:18;;;;;;;14.65;7.57;;;3.30;99.90;;;;;;12211070;29;20586;-41
2021/11/23 01:54:20;;;;;;;14.55;9.18;;;3.30;99.90;;;;;;12212827;29;20880;-39
2021/11/23 02:00:22;;;;;;;13.20;7.22;;;3.30;99.90;;;;;;12208262;29;20947;-37
2021/11/23 02:06:24;;;;;;;11.23;7.03;;;3.40;99.90;;;;;;12210109;29;20059;-37
2021/11/23 02:12:27;;;;;;;19.02;7.78;;;3.40;99.90;;;;;;12212716;29;20062;-39
2021/11/23 02:18:29;;;;;;;12.02;7.20;;;3.50;99.90;;;;;;12210367;29;20048;-39
2021/11/23 02:24:31;;;;;;;13.02;7.32;;;3.50;99.90;;;;;;12209288;29;20056;-37
2021/11/23 02:30:39;;;;;;;18.48;7.60;;;3.50;99.90;;;;;;12208338;29;20063;-38
2021/11/23 02:36:41;;;;;;;11.68;6.70;;;3.60;99.90;;;;;;12212047;29;20083;-39
2021/11/23 02:42:50;;;;;;;10.85;7.28;;;3.70;99.90;;;;;;12213986;29;20416;-39
2021/11/23 02:48:52;;;;;;;15.10;7.35;;;3.80;99.90;;;;;;12217058;29;20461;-38
2021/11/23 02:54:55;;;;;;;17.13;6.47;;;3.70;99.90;;;;;;12211970;29;20641;-39
2021/11/23 03:01:04;;;;;;;15.90;7.03;;;3.80;99.90;;;;;;12207974;29;20137;-40
2021/11/23 03:07:12;;;;;;;14.65;7.10;;;3.80;99.90;;;;;;12240334;28;20786;-38
2021/11/23 03:13:14;;;;;;;13.68;8.70;;;3.70;99.90;;;;;;12256441;28;20098;-38
2021/11/23 03:19:16;;;;;;;14.00;7.63;;;3.70;99.90;;;;;;12257790;28;20059;-39
2021/11/23 03:25:18;;;;;;;10.50;7.47;;;3.60;99.90;;;;;;12257738;28;20043;-40
2021/11/23 03:31:20;;;;;;;14.02;7.90;;;3.70;99.90;;;;;;12253328;28;20170;-39
2021/11/23 03:37:24;;;;;;;20.80;10.82;;;3.60;99.90;;;;;;12259181;28;20070;-39
2021/11/23 03:43:26;;;;;;;21.13;10.60;;;3.50;99.90;;;;;;12263485;28;20055;-38
2021/11/23 03:49:29;;;;;;;17.50;10.75;;;3.40;99.90;;;;;;12272936;28;20105;-38
2021/11/23 03:55:34;;;;;;;20.17;11.52;;;3.40;99.90;;;;;;12270814;28;20092;-38
2021/11/23 04:01:36;;;;;;;20.00;12.75;;;3.40;99.90;;;;;;12263381;28;20056;-38
2021/11/23 04:07:40;;;;;;;21.60;13.73;;;3.40;99.90;;;;;;12234283;28;20056;-38
2021/11/23 04:13:43;;;;;;;21.70;13.87;;;3.30;99.90;;;;;;12205194;29;20047;-39
2021/11/23 04:19:45;;;;;;;21.10;14.50;;;3.30;99.90;;;;;;12220115;29;20495;-39
2021/11/23 04:25:47;;;;;;;22.13;15.07;;;3.40;99.90;;;;;;12216734;29;20689;-38
2021/11/23 04:31:49;;;;;;;22.30;14.77;;;3.30;99.90;;;;;;12203570;29;20043;-39
2021/11/23 04:37:51;;;;;;;26.67;14.63;;;3.30;99.90;;;;;;12223892;29;20071;-38
2021/11/23 04:43:53;;;;;;;20.95;12.65;;;3.30;99.90;;;;;;12220214;29;20425;-40
2021/11/23 04:49:55;;;;;;;19.40;13.07;;;3.40;99.90;;;;;;12218202;29;20067;-39
2021/11/23 04:55:57;;;;;;;21.45;13.18;;;3.50;99.90;;;;;;12217815;28;20044;-39
2021/11/23 05:01:59;;;;;;;24.67;13.57;;;3.50;99.90;;;;;;12222251;29;20086;-40
2021/11/23 05:08:02;;;;;;;18.80;12.68;;;3.60;99.90;;;;;;12213344;29;20063;-38
2021/11/23 05:14:06;;;;;;;;;;;3.60;99.90;;;;;;12218395;29;20151;-38
2021/11/23 05:20:09;;;;;;;17.27;11.68;;;3.70;99.90;;;;;;12201240;29;19965;-38
2021/11/23 05:26:12;;;;;;;14.80;11.32;;;3.70;99.90;;;;;;12217286;29;20099;-38
2021/11/23 05:32:14;;;;;;;16.73;11.85;;;3.60;99.90;;;;;;12220351;29;20051;-39
2021/11/23 05:38:20;;;;;;;16.40;12.23;;;3.60;99.90;;;;;;12222681;29;20049;-39
2021/11/23 05:44:22;;;;;;;17.23;12.25;;;3.60;99.90;;;;;;12215169;29;20097;-40
2021/11/23 05:50:24;;;;;;;16.70;12.18;;;3.50;99.90;;;;;;12218210;29;20309;-39
2021/11/23 05:56:26;;;;;;;16.60;11.98;;;3.50;99.90;;;;;;12213889;29;20078;-38
2021/11/23 06:02:28;;;;;;;19.45;13.02;;;3.50;99.90;;;;;;12216601;29;20142;-38
2021/11/23 06:08:30;;;;;;;22.98;14.30;;;3.60;99.90;;;;;;12252385;28;20059;-38
2021/11/23 06:14:32;;;;;;;22.98;14.32;;;3.60;99.90;;;;;;12262051;28;20051;-39
2021/11/23 06:20:35;;;;;;;23.83;15.45;;;3.60;99.90;;;;;;12263782;28;20444;-38
2021/11/23 06:26:37;;;;;;;23.13;15.68;;;3.60;99.90;;;;;;12266403;28;20078;-39
2021/11/23 06:32:39;;;;;;;26.42;15.77;;;3.70;99.90;;;;;;12263944;28;20063;-39
2021/11/23 06:38:41;;;;;;;25.65;15.05;;;3.70;99.90;;;;;;12261720;28;20551;-39
2021/11/23 06:44:44;;;;;;;28.67;16.02;;;3.80;99.90;;;;;;12264854;28;20086;-38
2021/11/23 06:50:46;;;;;;;25.10;15.25;;;3.80;99.90;;;;;;12261144;28;20110;-39
2021/11/23 06:56:54;;;;;;;34.88;16.98;;;3.80;99.90;;;;;;12257934;28;20086;-39
2021/11/23 07:02:56;;;;;;;41.30;16.35;;;3.90;99.90;;;;;;12257357;28;20055;-38
2021/11/23 07:08:58;;;;;;;35.45;16.38;;;3.90;99.90;;;;;;12264965;28;20689;-38
2021/11/23 07:15:00;;;;;;;43.00;16.33;;;3.80;99.90;;;;;;12258453;28;20039;-39
2021/11/23 07:21:03;;;;;;;56.88;17.13;;;3.80;99.90;;;;;;12260297;28;20051;-39
2021/11/23 07:27:25;;;;;;;50.88;17.70;;;3.90;99.90;;;;;;12262997;28;20114;-39
2021/11/23 07:33:27;;;;;;;54.28;16.80;;;3.90;99.90;;;;;;12257590;28;20076;-38
2021/11/23 07:39:29;;;;;;;62.92;17.05;;;4.00;99.90;;;;;;12264532;28;20138;-39
2021/11/23 07:45:31;;;;;;;52.28;16.88;;;4.00;99.90;;;;;;12262613;28;20558;-39
2021/11/23 07:51:35;;;;;;;63.58;17.00;;;4.10;99.90;;;;;;12264171;28;20063;-38
2021/11/23 07:57:38;;;;;;;49.97;17.25;;;4.10;99.90;;;;;;12257215;28;20114;-38
2021/11/23 08:03:40;;;;;;;36.38;16.67;;;4.20;99.90;;;;;;12256404;28;20058;-38
2021/11/23 08:09:43;;;;;;;41.95;16.60;;;4.30;99.90;;;;;;12261309;28;20154;-38
2021/11/23 08:15:46;;;;;;;49.70;17.15;;;4.40;99.90;;;;;;12257250;28;20086;-38
2021/11/23 08:21:49;;;;;;;52.67;17.08;;;4.30;99.90;;;;;;12254908;28;20083;-38
2021/11/23 08:27:52;;;;;;;84.05;17.38;;;4.30;99.90;;;;;;12254473;28;20051;-39
2021/11/23 08:33:54;;;;;;;54.40;15.90;;;4.30;99.90;;;;;;12263280;28;20471;-39
2021/11/23 08:39:57;;;;;;;54.92;15.10;;;4.40;99.90;;;;;;12263486;28;20114;-39
2021/11/23 08:45:59;;;;;;;37.63;14.85;;;4.40;99.90;;;;;;12262249;28;20075;-39
2021/11/23 08:52:01;;;;;;;47.33;15.15;;;4.40;99.90;;;;;;12264882;28;20047;-39
2021/11/23 08:58:06;;;;;;;34.58;14.15;;;4.50;99.90;;;;;;12266765;28;20051;-38
2021/11/23 09:04:08;;;;;;;50.07;14.87;;;4.50;99.90;;;;;;12262238;28;20051;-38
2021/11/23 09:10:20;;;;;;;52.00;14.32;;;4.70;99.90;;;;;;12266864;28;20103;-39
2021/11/23 09:16:23;;;;;;;48.38;14.27;;;4.70;99.90;;;;;;12262440;28;20078;-39
2021/11/23 09:22:25;;;;;;;54.10;15.05;;;4.80;99.90;;;;;;12261624;28;20886;-39
2021/11/23 09:28:29;;;;;;;56.45;15.68;;;4.70;99.90;;;;;;12259210;28;20058;-39
2021/11/23 09:34:31;;;;;;;54.60;16.40;;;4.70;99.90;;;;;;12263903;28;20129;-37
2021/11/23 09:40:34;;;;;;;54.00;16.30;;;4.80;99.90;;;;;;12268896;28;20059;-40
2021/11/23 09:46:38;;;;;;;56.47;16.40;;;4.80;99.90;;;;;;12269526;28;20202;-40
2021/11/23 09:52:40;;;;;;;57.15;17.63;;;4.80;99.90;;;;;;12261284;28;20288;-40
2021/11/23 09:58:42;;;;;;;73.63;17.38;;;4.70;99.90;;;;;;12258971;28;20063;-39
2021/11/23 10:05:04;;;;;;;51.28;16.70;;;4.70;99.90;;;;;;12261480;28;20973;-38
2021/11/23 10:11:07;;;;;;;79.95;21.23;;;4.80;99.90;;;;;;12252044;28;20063;-38
2021/11/23 10:17:26;;;;;;;63.47;20.58;;;4.80;99.90;;;;;;12267946;28;20151;-38
2021/11/23 10:23:33;;;;;;;59.95;19.95;;;4.90;99.90;;;;;;12264206;28;20048;-38
2021/11/23 10:29:50;;;;;;;57.72;18.83;;;5.10;99.90;;;;;;12264610;28;20051;-38
2021/11/23 10:35:56;;;;;;;42.45;17.48;;;5.10;99.90;;;;;;12262529;28;20056;-39
2021/11/23 10:42:00;;;;;;;44.92;19.42;;;5.20;99.90;;;;;;12260868;28;20053;-38
2021/11/23 10:48:04;;;;;;;31.33;16.90;;;5.30;99.90;;;;;;12260051;28;20690;-38
2021/11/23 10:54:15;;;;;;;51.17;19.67;;;5.40;99.90;;;;;;12255897;28;20066;-38
2021/11/23 11:00:20;;;;;;;37.47;18.25;;;5.30;99.90;;;;;;12250871;28;20057;-38
2021/11/23 11:06:22;;;;;;;34.47;18.63;;;5.40;99.90;;;;;;12254375;28;20143;-38
2021/11/23 11:12:24;;;;;;;38.70;17.73;;;5.30;99.90;;;;;;12258376;28;20095;-38
2021/11/23 11:18:27;;;;;;;41.28;17.60;;;5.30;99.90;;;;;;12260891;28;20469;-38
2021/11/23 11:24:39;;;;;;;33.78;19.25;;;5.40;99.90;;;;;;12256421;28;20051;-38
2021/11/23 11:30:51;;;;;;;28.40;17.58;;;5.50;99.90;;;;;;12261314;28;20500;-39
2021/11/23 11:37:19;;;;;;;37.42;18.55;;;5.30;99.90;;;;;;12268957;28;20047;-39
2021/11/23 11:43:36;;;;;;;38.45;19.10;;;5.30;99.90;;;;;;12259658;28;20051;-38
2021/11/23 11:49:50;;;;;;;51.45;19.92;;;5.40;99.90;;;;;;12249663;28;20066;-38
2021/11/23 11:55:55;;;;;;;68.50;21.00;;;5.30;99.90;;;;;;12269598;28;20134;-39
2021/11/23 12:02:04;;;;;;;72.28;20.80;;;5.30;99.90;;;;;;12259046;28;20130;-39
2021/11/23 12:08:23;;;;;;;47.60;21.58;;;5.30;99.90;;;;;;12272320;28;20102;-38
2021/11/23 12:14:37;;;;;;;57.08;21.52;;;5.40;99.90;;;;;;12263829;28;20079;-39
2021/11/23 12:21:01;;;;;;;52.97;20.13;;;5.40;99.90;;;;;;12269698;28;20471;-39
2021/11/23 12:27:10;;;;;;;72.67;22.40;;;5.40;99.90;;;;;;12264027;28;20571;-39
2021/11/23 12:33:13;;;;;;;63.13;21.25;;;5.40;99.90;;;;;;12276329;28;20146;-39
2021/11/23 12:39:19;;;;;;;85.65;21.65;;;5.40;99.90;;;;;;12273439;28;20423;-38
2021/11/23 12:45:25;;;;;;;59.03;20.85;;;5.50;99.90;;;;;;12250655;28;20417;-39
2021/11/23 12:51:33;;;;;;;69.28;21.10;;;5.40;99.90;;;;;;12251194;28;20051;-39
2021/11/23 12:57:36;;;;;;;84.53;20.95;;;5.50;99.90;;;;;;12268208;28;20062;-37
2021/11/23 13:03:50;;;;;;;62.30;22.08;;;5.50;99.90;;;;;;12258510;28;20537;-39
2021/11/23 13:10:10;;;;;;;54.95;22.13;;;5.40;99.90;;;;;;12220538;29;20055;-38
2021/11/23 13:16:13;;;;;;;52.10;23.15;;;5.50;99.90;;;;;;12213989;29;20098;-38
2021/11/23 13:22:15;;;;;;;41.00;22.40;;;5.50;99.90;;;;;;12222179;29;20286;-39
2021/11/23 13:28:23;;;;;;;44.00;22.17;;;5.50;99.90;;;;;;12222401;29;20540;-41
2021/11/23 13:34:25;;;;;;;42.22;20.63;;;5.50;99.90;;;;;;12220911;29;20056;-38
2021/11/23 13:40:28;;;;;;;37.17;19.00;;;5.60;99.90;;;;;;12220884;29;20051;-39
2021/11/23 13:46:38;;;;;;;36.58;18.98;;;5.70;99.90;;;;;;12219035;29;20580;-38
2021/11/23 13:52:42;;;;;;;39.38;20.02;;;5.70;99.90;;;;;;12221651;29;20527;-38
2021/11/23 13:58:50;;;;;;;43.30;21.90;;;5.80;99.90;;;;;;12221761;29;20139;-38
2021/11/23 14:04:53;;;;;;;41.22;22.00;;;5.70;99.90;;;;;;12210501;28;20150;-38
2021/11/23 14:11:00;;;;;;;39.27;22.03;;;5.70;99.90;;;;;;12266974;28;20153;-39
2021/11/23 14:17:05;;;;;;;37.17;20.08;;;5.70;99.90;;;;;;12270850;28;20142;-39
2021/11/23 14:23:08;;;;;;;43.15;21.75;;;5.70;99.90;;;;;;12264324;28;20039;-38
2021/11/23 14:29:17;;;;;;;40.63;21.88;;;5.70;99.90;;;;;;12266253;28;20058;-38
2021/11/23 14:35:20;;;;;;;36.78;21.35;;;5.70;99.90;;;;;;12265986;28;20435;-38
2021/11/23 14:41:22;;;;;;;39.00;21.63;;;5.70;99.90;;;;;;12260949;28;20051;-39
2021/11/23 14:47:24;;;;;;;42.17;22.27;;;5.70;99.90;;;;;;12263524;28;20058;-39
2021/11/23 14:53:26;;;;;;;45.88;24.10;;;5.70;99.90;;;;;;12267114;28;20066;-38
2021/11/23 14:59:29;;;;;;;54.92;24.45;;;5.60;99.90;;;;;;12264258;28;20488;-39
2021/11/23 15:05:32;;;;;;;48.15;25.35;;;5.60;99.90;;;;;;12255619;28;20432;-39
2021/11/23 15:11:34;;;;;;;55.92;24.75;;;5.50;99.90;;;;;;12260123;28;20085;-39
2021/11/23 15:17:39;;;;;;;53.95;24.98;;;5.50;99.90;;;;;;12262185;28;20099;-39
2021/11/23 15:23:41;;;;;;;48.83;23.13;;;5.50;99.90;;;;;;12258897;28;20416;-38
2021/11/23 15:29:49;;;;;;;52.83;23.48;;;5.60;99.90;;;;;;12260325;28;20070;-38
2021/11/23 15:35:51;;;;;;;46.53;23.60;;;5.60;99.90;;;;;;12260819;28;20048;-38
2021/11/23 15:41:53;;;;;;;52.13;24.95;;;5.60;99.90;;;;;;12269968;28;20075;-39
2021/11/23 15:47:56;;;;;;;57.03;25.23;;;5.60;99.90;;;;;;12268554;28;20141;-40
2021/11/23 15:53:57;;;;;;;54.75;24.98;;;5.60;99.90;;;;;;12273036;28;20262;-38
2021/11/23 16:00:03;;;;;;;54.22;25.17;;;5.60;99.90;;;;;;12271342;28;20551;-38
2021/11/23 16:06:05;;;;;;;51.28;24.33;;;5.60;99.90;;;;;;12263199;28;20051;-38
2021/11/23 16:12:08;;;;;;;49.33;24.10;;;5.60;99.90;;;;;;12260589;28;20126;-38
2021/11/23 16:18:09;;;;;;;49.75;23.85;;;5.70;99.90;;;;;;12265096;28;20047;-39
2021/11/23 16:24:28;;;;;;;47.83;23.17;;;5.70;99.90;;;;;;12266030;28;20047;-39
2021/11/23 16:30:31;;;;;;;52.10;23.55;;;5.70;99.90;;;;;;12266162;28;20091;-38
2021/11/23 16:36:33;;;;;;;47.47;23.23;;;5.80;99.90;;;;;;12269860;28;20141;-38
2021/11/23 16:42:36;;;;;;;46.40;23.27;;;5.80;99.90;;;;;;12273384;28;20146;-38
2021/11/23 16:48:39;;;;;;;52.10;24.83;;;5.80;99.90;;;;;;12260915;28;20110;-39
2021/11/23 16:54:43;;;;;;;64.70;26.10;;;5.80;99.90;;;;;;12264517;28;20066;-37
2021/11/23 17:00:45;;;;;;;57.73;25.03;;;5.80;99.90;;;;;;12265914;28;20750;-37
2021/11/23 17:06:55;;;;;;;63.27;26.43;;;5.80;99.90;;;;;;12261596;28;20527;-38
2021/11/23 17:12:57;;;;;;;56.83;26.63;;;5.80;99.90;;;;;;12267477;28;20146;-38
2021/11/23 17:18:59;;;;;;;70.97;28.15;;;5.80;99.90;;;;;;12265699;28;20827;-40
2021/11/23 17:25:03;;;;;;;70.18;27.73;;;5.80;99.90;;;;;;12260321;28;20051;-38
2021/11/23 17:31:06;;;;;;;62.35;26.63;;;5.80;99.90;;;;;;12263065;28;20143;-39
2021/11/23 17:37:08;;;;;;;67.88;26.50;;;5.80;99.90;;;;;;12257702;28;20105;-38
2021/11/23 17:43:12;;;;;;;67.57;26.53;;;5.70;99.90;;;;;;12261191;28;20438;-39
2021/11/23 17:49:15;;;;;;;65.10;26.60;;;5.80;99.90;;;;;;12262765;28;20117;-39
2021/11/23 17:55:26;;;;;;;61.50;26.88;;;5.80;99.90;;;;;;12263219;28;20063;-39
2021/11/23 18:01:32;;;;;;;62.97;26.05;;;5.80;99.90;;;;;;12264198;28;20066;-38
2021/11/23 18:07:36;;;;;;;62.92;27.05;;;5.90;99.90;;;;;;12263430;28;20142;-38
2021/11/23 18:13:40;;;;;;;65.13;27.27;;;5.80;99.90;;;;;;12256080;28;20480;-39
2021/11/23 18:19:43;;;;;;;67.28;26.38;;;5.80;99.90;;;;;;12265791;28;20047;-38
2021/11/23 18:25:48;;;;;;;69.10;27.27;;;5.90;99.90;;;;;;12261414;28;20594;-39
2021/11/23 18:31:51;;;;;;;65.75;27.42;;;5.80;99.90;;;;;;12263943;28;20860;-39
2021/11/23 18:37:55;;;;;;;70.30;28.15;;;5.90;99.90;;;;;;12280244;28;20059;-38
2021/11/23 18:43:59;;;;;;;65.30;26.58;;;5.90;99.90;;;;;;12264346;28;20052;-38
2021/11/23 18:50:02;;;;;;;70.03;28.83;;;5.90;99.90;;;;;;12265333;28;20047;-39
2021/11/23 18:56:05;;;;;;;74.85;29.60;;;5.90;99.90;;;;;;12263156;28;20059;-39
2021/11/23 19:02:07;;;;;;;81.78;29.90;;;5.90;99.90;;;;;;12262454;28;20142;-39
2021/11/23 19:08:11;;;;;;;83.45;29.73;;;5.90;99.90;;;;;;12265383;28;20323;-38
2021/11/23 19:14:13;;;;;;;75.70;30.55;;;5.90;99.90;;;;;;12261281;28;20111;-39
2021/11/23 19:20:18;;;;;;;82.18;30.60;;;5.90;99.90;;;;;;12260781;28;20086;-38
2021/11/23 19:26:21;;;;;;;85.55;31.58;;;5.90;99.90;;;;;;12260541;28;20044;-39
2021/11/23 19:32:23;;;;;;;79.80;31.10;;;5.90;99.90;;;;;;12263650;28;20142;-38
2021/11/23 19:38:24;;;;;;;88.80;31.63;;;5.90;99.90;;;;;;12256073;28;20052;-38
2021/11/23 19:44:26;;;;;;;79.20;30.75;;;5.90;99.90;;;;;;12260712;28;20077;-39
2021/11/23 19:50:29;;;;;;;87.57;32.38;;;5.90;99.90;;;;;;12259389;28;20130;-39
2021/11/23 19:56:34;;;;;;;87.47;32.13;;;5.90;99.90;;;;;;12262535;28;20066;-39
2021/11/23 20:02:35;;;;;;;86.78;30.98;;;5.90;99.90;;;;;;12268377;28;20059;-38
2021/11/23 20:08:39;;;;;;;85.95;32.05;;;6.00;99.90;;;;;;12266493;28;20063;-39
2021/11/23 20:14:41;;;;;;;92.68;33.22;;;6.00;99.90;;;;;;12260469;28;20051;-38
2021/11/23 20:20:48;;;;;;;97.68;33.00;;;5.90;99.90;;;;;;12258432;28;20051;-39
2021/11/23 20:26:50;;;;;;;97.10;33.92;;;5.90;99.90;;;;;;12264629;28;20082;-38
2021/11/23 20:32:56;;;;;;;105.90;34.33;;;5.90;99.90;;;;;;12271993;28;20048;-39
2021/11/23 20:38:58;;;;;;;94.60;32.92;;;5.90;99.90;;;;;;12263574;28;20423;-38
2021/11/23 20:45:05;;;;;;;99.75;33.20;;;5.90;99.90;;;;;;12268645;28;20130;-40
2021/11/23 20:51:07;;;;;;;108.35;34.65;;;5.90;99.90;;;;;;12267997;28;20779;-39
2021/11/23 20:57:09;;;;;;;112.13;36.60;;;5.90;99.90;;;;;;12268369;28;20150;-39
2021/11/23 21:03:11;;;;;;;97.05;34.38;;;5.90;99.90;;;;;;12270092;28;20071;-39
2021/11/23 21:09:13;;;;;;;116.13;36.00;;;5.90;99.90;;;;;;12269357;28;20062;-39
2021/11/23 21:15:16;;;;;;;112.53;34.80;;;5.90;99.90;;;;;;12266094;28;20075;-38
2021/11/23 21:21:18;;;;;;;117.10;35.80;;;5.90;99.90;;;;;;12267691;28;20055;-38
2021/11/23 21:27:20;;;;;;;118.10;34.13;;;5.90;99.90;;;;;;12273168;28;20519;-39
2021/11/23 21:33:22;;;;;;;118.75;33.92;;;5.90;99.90;;;;;;12271952;28;20043;-38
2021/11/23 21:39:24;;;;;;;95.70;31.52;;;5.90;99.90;;;;;;12272344;28;20051;-38
2021/11/23 21:45:34;;;;;;;125.88;35.15;;;5.90;99.90;;;;;;12265368;28;20133;-38
2021/11/23 21:51:36;;;;;;;111.47;33.33;;;5.90;99.90;;;;;;12268467;28;20099;-38
2021/11/23 21:57:38;;;;;;;127.20;35.53;;;5.90;99.90;;;;;;12271552;28;20396;-39
2021/11/23 22:03:42;;;;;;;118.60;35.10;;;5.90;99.90;;;;;;12254999;28;20065;-38
2021/11/23 22:09:44;;;;;;;157.30;36.87;;;5.90;99.90;;;;;;12267520;28;20066;-39
2021/11/23 22:15:48;;;;;;;158.57;36.67;;;5.90;99.90;;;;;;12267617;28;20303;-38
2021/11/23 22:21:51;;;;;;;175.07;38.22;;;5.80;99.90;;;;;;12269457;28;20044;-39
2021/11/23 22:27:54;;;;;;;154.57;36.10;;;5.80;99.90;;;;;;12268592;28;20074;-38
2021/11/23 22:34:00;;;;;;;143.57;36.70;;;5.80;99.90;;;;;;12269072;28;20059;-38
2021/11/23 22:40:04;;;;;;;160.20;36.15;;;5.80;99.90;;;;;;12274353;28;20055;-38
2021/11/23 22:46:07;;;;;;;141.40;35.53;;;5.80;99.90;;;;;;12265934;28;20058;-39
2021/11/23 22:52:10;;;;;;;158.00;36.13;;;5.80;99.90;;;;;;12267535;28;20047;-39
2021/11/23 22:58:13;;;;;;;144.88;34.00;;;5.80;99.90;;;;;;12269370;28;20071;-39
2021/11/23 23:04:15;;;;;;;116.03;32.70;;;5.80;99.90;;;;;;12262071;28;20070;-39
2021/11/23 23:10:20;;;;;;;125.40;31.92;;;5.80;99.90;;;;;;12264492;28;20464;-38
2021/11/23 23:16:22;;;;;;;131.05;32.05;;;5.80;99.90;;;;;;12262926;28;20405;-39
2021/11/23 23:22:25;;;;;;;109.72;31.13;;;5.80;99.90;;;;;;12267687;28;20484;-38
2021/11/23 23:28:34;;;;;;;121.03;31.23;;;5.80;99.90;;;;;;12268878;28;20055;-38
2021/11/23 23:34:36;;;;;;;140.40;30.67;;;5.80;99.90;;;;;;12264750;28;20047;-38
2021/11/23 23:40:40;;;;;;;129.60;31.05;;;5.80;99.90;;;;;;12266176;28;20092;-38
2021/11/23 23:46:42;;;;;;;123.40;31.47;;;5.70;99.90;;;;;;12263109;28;20058;-40
2021/11/23 23:52:45;;;;;;;97.43;28.30;;;5.70;99.90;;;;;;12266707;28;20078;-38
2021/11/23 23:58:47;;;;;;;107.55;29.15;;;5.70;99.90;;;;;;12270370;28;20055;-38
